sensor_id;sensor_type;location;lat;lon;timestamp;temperature;humidity
7658;DHT22;8462;53.156;8.220;2022-12-07T00:01:26;7.00;92.70
7658;DHT22;8462;53.156;8.220;2022-12-07T00:03:56;7.00;92.60
7658;DHT22;8462;53.156;8.220;2022-12-07T00:06:29;7.00;92.50
7658;DHT22;8462;53.156;8.220;2022-12-07T00:08:56;6.90;92.50
7658;DHT22;8462;53.156;8.220;2022-12-07T00:11:23;6.90;92.70
7658;DHT22;8462;53.156;8.220;2022-12-07T00:13:52;7.00;92.80
7658;DHT22;8462;53.156;8.220;2022-12-07T00:16:21;7.00;92.60
7658;DHT22;8462;53.156;8.220;2022-12-07T00:18:48;7.00;92.60
7658;DHT22;8462;53.156;8.220;2022-12-07T00:21:19;7.00;92.50
7658;DHT22;8462;53.156;8.220;2022-12-07T00:23:47;7.00;92.50
7658;DHT22;8462;53.156;8.220;2022-12-07T00:26:16;7.00;92.20
7658;DHT22;8462;53.156;8.220;2022-12-07T00:28:45;7.00;92.20
7658;DHT22;8462;53.156;8.220;2022-12-07T00:31:13;6.90;92.00
7658;DHT22;8462;53.156;8.220;2022-12-07T00:33:41;6.90;91.90
7658;DHT22;8462;53.156;8.220;2022-12-07T00:36:09;6.90;92.00
7658;DHT22;8462;53.156;8.220;2022-12-07T00:38:39;6.90;91.70
7658;DHT22;8462;53.156;8.220;2022-12-07T00:41:09;6.90;91.80
7658;DHT22;8462;53.156;8.220;2022-12-07T00:43:37;6.90;91.70
7658;DHT22;8462;53.156;8.220;2022-12-07T00:46:04;6.90;91.50
7658;DHT22;8462;53.156;8.220;2022-12-07T00:48:31;6.80;91.30
7658;DHT22;8462;53.156;8.220;2022-12-07T00:50:59;6.80;91.90
7658;DHT22;8462;53.156;8.220;2022-12-07T00:53:27;6.80;91.70
7658;DHT22;8462;53.156;8.220;2022-12-07T00:55:55;6.80;91.70
7658;DHT22;8462;53.156;8.220;2022-12-07T00:58:23;6.80;91.60
7658;DHT22;8462;53.156;8.220;2022-12-07T01:00:50;6.70;91.70
7658;DHT22;8462;53.156;8.220;2022-12-07T01:03:17;6.70;91.50
7658;DHT22;8462;53.156;8.220;2022-12-07T01:05:52;6.70;91.40
7658;DHT22;8462;53.156;8.220;2022-12-07T01:08:19;6.60;91.30
7658;DHT22;8462;53.156;8.220;2022-12-07T01:10:46;6.50;91.50
7658;DHT22;8462;53.156;8.220;2022-12-07T01:13:15;6.40;91.50
7658;DHT22;8462;53.156;8.220;2022-12-07T01:15:43;6.40;91.60
7658;DHT22;8462;53.156;8.220;2022-12-07T01:18:10;6.30;91.80
7658;DHT22;8462;53.156;8.220;2022-12-07T01:20:37;6.30;91.90
7658;DHT22;8462;53.156;8.220;2022-12-07T01:23:04;6.20;91.90
7658;DHT22;8462;53.156;8.220;2022-12-07T01:25:31;6.20;92.00
7658;DHT22;8462;53.156;8.220;2022-12-07T01:27:58;6.20;92.20
7658;DHT22;8462;53.156;8.220;2022-12-07T01:30:26;6.10;92.30
7658;DHT22;8462;53.156;8.220;2022-12-07T01:32:55;6.20;92.50
7658;DHT22;8462;53.156;8.220;2022-12-07T01:35:21;6.20;92.40
7658;DHT22;8462;53.156;8.220;2022-12-07T01:37:48;6.20;92.50
7658;DHT22;8462;53.156;8.220;2022-12-07T01:40:15;6.20;92.60
7658;DHT22;8462;53.156;8.220;2022-12-07T01:42:42;6.30;92.60
7658;DHT22;8462;53.156;8.220;2022-12-07T01:45:36;6.40;92.60
7658;DHT22;8462;53.156;8.220;2022-12-07T01:48:05;6.40;92.40
7658;DHT22;8462;53.156;8.220;2022-12-07T01:50:35;6.40;92.40
7658;DHT22;8462;53.156;8.220;2022-12-07T01:53:04;6.40;92.50
7658;DHT22;8462;53.156;8.220;2022-12-07T01:55:32;6.40;92.40
7658;DHT22;8462;53.156;8.220;2022-12-07T01:58:00;6.40;92.30
7658;DHT22;8462;53.156;8.220;2022-12-07T02:00:26;6.40;92.70
7658;DHT22;8462;53.156;8.220;2022-12-07T02:02:57;6.40;92.40
7658;DHT22;8462;53.156;8.220;2022-12-07T02:05:26;6.40;92.40
7658;DHT22;8462;53.156;8.220;2022-12-07T02:07:55;6.40;92.40
7658;DHT22;8462;53.156;8.220;2022-12-07T02:10:25;6.50;92.30
7658;DHT22;8462;53.156;8.220;2022-12-07T02:12:56;6.50;92.30
7658;DHT22;8462;53.156;8.220;2022-12-07T02:15:36;6.50;92.40
7658;DHT22;8462;53.156;8.220;2022-12-07T02:18:09;6.50;92.40
7658;DHT22;8462;53.156;8.220;2022-12-07T02:20:45;6.60;92.40
7658;DHT22;8462;53.156;8.220;2022-12-07T02:23:50;6.60;92.30
7658;DHT22;8462;53.156;8.220;2022-12-07T02:26:47;6.70;92.20
7658;DHT22;8462;53.156;8.220;2022-12-07T02:29:22;6.60;92.00
7658;DHT22;8462;53.156;8.220;2022-12-07T02:31:56;6.60;91.90
7658;DHT22;8462;53.156;8.220;2022-12-07T02:34:33;6.60;91.80
7658;DHT22;8462;53.156;8.220;2022-12-07T02:37:06;6.50;91.90
7658;DHT22;8462;53.156;8.220;2022-12-07T02:39:40;6.50;91.90
7658;DHT22;8462;53.156;8.220;2022-12-07T02:42:14;6.40;91.90
7658;DHT22;8462;53.156;8.220;2022-12-07T02:44:44;6.40;92.00
7658;DHT22;8462;53.156;8.220;2022-12-07T02:47:15;6.40;92.00
7658;DHT22;8462;53.156;8.220;2022-12-07T02:49:44;6.40;92.00
7658;DHT22;8462;53.156;8.220;2022-12-07T02:52:11;6.40;91.70
7658;DHT22;8462;53.156;8.220;2022-12-07T02:54:38;6.30;91.70
7658;DHT22;8462;53.156;8.220;2022-12-07T02:57:14;6.30;91.70
7658;DHT22;8462;53.156;8.220;2022-12-07T02:59:54;6.30;91.80
7658;DHT22;8462;53.156;8.220;2022-12-07T03:02:26;6.20;91.80
7658;DHT22;8462;53.156;8.220;2022-12-07T03:05:05;6.20;91.80
7658;DHT22;8462;53.156;8.220;2022-12-07T03:07:42;6.20;91.90
7658;DHT22;8462;53.156;8.220;2022-12-07T03:10:18;6.20;91.90
7658;DHT22;8462;53.156;8.220;2022-12-07T03:12:56;6.10;91.70
7658;DHT22;8462;53.156;8.220;2022-12-07T03:15:31;6.10;91.80
7658;DHT22;8462;53.156;8.220;2022-12-07T03:18:02;6.10;91.80
7658;DHT22;8462;53.156;8.220;2022-12-07T03:20:32;6.10;91.60
7658;DHT22;8462;53.156;8.220;2022-12-07T03:23:01;6.10;91.50
7658;DHT22;8462;53.156;8.220;2022-12-07T03:25:30;6.10;91.50
7658;DHT22;8462;53.156;8.220;2022-12-07T03:28:03;6.00;91.40
7658;DHT22;8462;53.156;8.220;2022-12-07T03:30:37;6.00;91.40
7658;DHT22;8462;53.156;8.220;2022-12-07T03:33:10;6.00;91.50
7658;DHT22;8462;53.156;8.220;2022-12-07T03:35:40;6.10;91.70
7658;DHT22;8462;53.156;8.220;2022-12-07T03:38:13;6.10;91.90
7658;DHT22;8462;53.156;8.220;2022-12-07T03:40:49;6.10;91.80
7658;DHT22;8462;53.156;8.220;2022-12-07T03:43:20;6.20;91.50
7658;DHT22;8462;53.156;8.220;2022-12-07T03:45:57;6.10;91.40
7658;DHT22;8462;53.156;8.220;2022-12-07T03:48:33;6.10;91.40
7658;DHT22;8462;53.156;8.220;2022-12-07T03:51:06;6.10;91.40
7658;DHT22;8462;53.156;8.220;2022-12-07T03:53:40;6.00;91.40
7658;DHT22;8462;53.156;8.220;2022-12-07T03:56:10;6.00;91.40
7658;DHT22;8462;53.156;8.220;2022-12-07T03:58:38;6.00;91.40
7658;DHT22;8462;53.156;8.220;2022-12-07T04:01:07;6.00;91.40
7658;DHT22;8462;53.156;8.220;2022-12-07T04:03:34;6.00;91.40
7658;DHT22;8462;53.156;8.220;2022-12-07T04:06:01;5.90;91.40
7658;DHT22;8462;53.156;8.220;2022-12-07T04:08:28;5.90;91.50
7658;DHT22;8462;53.156;8.220;2022-12-07T04:10:55;5.90;91.60
7658;DHT22;8462;53.156;8.220;2022-12-07T04:13:22;5.90;91.70
7658;DHT22;8462;53.156;8.220;2022-12-07T04:15:49;5.90;91.70
7658;DHT22;8462;53.156;8.220;2022-12-07T04:18:17;5.90;91.60
7658;DHT22;8462;53.156;8.220;2022-12-07T04:20:45;5.90;91.60
7658;DHT22;8462;53.156;8.220;2022-12-07T04:23:12;5.90;91.60
7658;DHT22;8462;53.156;8.220;2022-12-07T04:25:39;5.90;91.60
7658;DHT22;8462;53.156;8.220;2022-12-07T04:28:07;5.80;91.60
7658;DHT22;8462;53.156;8.220;2022-12-07T04:30:33;5.90;91.80
7658;DHT22;8462;53.156;8.220;2022-12-07T04:33:00;5.90;92.10
7658;DHT22;8462;53.156;8.220;2022-12-07T04:35:28;6.00;92.20
7658;DHT22;8462;53.156;8.220;2022-12-07T04:37:55;6.10;92.20
7658;DHT22;8462;53.156;8.220;2022-12-07T04:40:22;6.10;92.00
7658;DHT22;8462;53.156;8.220;2022-12-07T04:42:49;6.10;91.80
7658;DHT22;8462;53.156;8.220;2022-12-07T04:45:16;6.00;91.70
7658;DHT22;8462;53.156;8.220;2022-12-07T04:47:43;6.00;91.70
7658;DHT22;8462;53.156;8.220;2022-12-07T04:50:10;6.00;91.80
7658;DHT22;8462;53.156;8.220;2022-12-07T04:52:38;6.00;92.00
7658;DHT22;8462;53.156;8.220;2022-12-07T04:55:06;6.00;92.20
7658;DHT22;8462;53.156;8.220;2022-12-07T04:57:33;6.00;92.20
7658;DHT22;8462;53.156;8.220;2022-12-07T05:00:00;6.10;92.30
7658;DHT22;8462;53.156;8.220;2022-12-07T05:02:27;6.10;92.10
7658;DHT22;8462;53.156;8.220;2022-12-07T05:04:54;6.20;92.00
7658;DHT22;8462;53.156;8.220;2022-12-07T05:07:20;6.10;91.90
7658;DHT22;8462;53.156;8.220;2022-12-07T05:09:49;6.10;91.90
7658;DHT22;8462;53.156;8.220;2022-12-07T05:12:16;6.10;91.80
7658;DHT22;8462;53.156;8.220;2022-12-07T05:14:43;6.10;91.90
7658;DHT22;8462;53.156;8.220;2022-12-07T05:17:10;6.10;91.90
7658;DHT22;8462;53.156;8.220;2022-12-07T05:19:37;6.10;91.80
7658;DHT22;8462;53.156;8.220;2022-12-07T05:22:04;6.00;92.20
7658;DHT22;8462;53.156;8.220;2022-12-07T05:24:31;6.00;91.90
7658;DHT22;8462;53.156;8.220;2022-12-07T05:26:59;6.00;92.10
7658;DHT22;8462;53.156;8.220;2022-12-07T05:29:26;6.00;92.20
7658;DHT22;8462;53.156;8.220;2022-12-07T05:31:53;6.00;92.10
7658;DHT22;8462;53.156;8.220;2022-12-07T05:34:20;6.00;92.10
7658;DHT22;8462;53.156;8.220;2022-12-07T05:36:47;6.00;92.30
7658;DHT22;8462;53.156;8.220;2022-12-07T05:39:14;6.10;92.30
7658;DHT22;8462;53.156;8.220;2022-12-07T05:41:41;6.10;92.50
7658;DHT22;8462;53.156;8.220;2022-12-07T05:44:27;6.10;92.10
7658;DHT22;8462;53.156;8.220;2022-12-07T05:46:54;6.10;92.10
7658;DHT22;8462;53.156;8.220;2022-12-07T05:49:21;6.10;92.10
7658;DHT22;8462;53.156;8.220;2022-12-07T05:51:48;6.10;92.20
7658;DHT22;8462;53.156;8.220;2022-12-07T05:54:15;6.10;92.10
7658;DHT22;8462;53.156;8.220;2022-12-07T05:56:41;6.10;92.20
7658;DHT22;8462;53.156;8.220;2022-12-07T05:59:09;6.10;92.10
7658;DHT22;8462;53.156;8.220;2022-12-07T06:01:53;6.10;92.10
7658;DHT22;8462;53.156;8.220;2022-12-07T06:04:20;6.10;92.20
7658;DHT22;8462;53.156;8.220;2022-12-07T06:06:47;6.10;92.20
7658;DHT22;8462;53.156;8.220;2022-12-07T06:09:15;6.20;92.30
7658;DHT22;8462;53.156;8.220;2022-12-07T06:11:42;6.20;92.30
7658;DHT22;8462;53.156;8.220;2022-12-07T06:14:27;6.20;92.10
7658;DHT22;8462;53.156;8.220;2022-12-07T06:16:55;6.20;92.10
7658;DHT22;8462;53.156;8.220;2022-12-07T06:19:22;6.30;91.90
7658;DHT22;8462;53.156;8.220;2022-12-07T06:21:49;6.30;92.00
7658;DHT22;8462;53.156;8.220;2022-12-07T06:24:17;6.40;92.00
7658;DHT22;8462;53.156;8.220;2022-12-07T06:26:44;6.40;91.90
7658;DHT22;8462;53.156;8.220;2022-12-07T06:29:12;6.40;91.80
7658;DHT22;8462;53.156;8.220;2022-12-07T06:31:39;6.50;91.70
7658;DHT22;8462;53.156;8.220;2022-12-07T06:34:10;6.50;91.50
7658;DHT22;8462;53.156;8.220;2022-12-07T06:36:37;6.50;91.40
7658;DHT22;8462;53.156;8.220;2022-12-07T06:39:05;6.50;91.40
7658;DHT22;8462;53.156;8.220;2022-12-07T06:41:32;6.60;91.50
7658;DHT22;8462;53.156;8.220;2022-12-07T06:43:59;6.60;91.10
7658;DHT22;8462;53.156;8.220;2022-12-07T06:46:26;6.60;91.00
7658;DHT22;8462;53.156;8.220;2022-12-07T06:48:52;6.60;90.70
7658;DHT22;8462;53.156;8.220;2022-12-07T06:51:21;6.50;90.60
7658;DHT22;8462;53.156;8.220;2022-12-07T06:53:48;6.50;90.60
7658;DHT22;8462;53.156;8.220;2022-12-07T06:56:15;6.40;90.80
7658;DHT22;8462;53.156;8.220;2022-12-07T06:58:42;6.40;91.00
7658;DHT22;8462;53.156;8.220;2022-12-07T07:01:09;6.40;91.00
7658;DHT22;8462;53.156;8.220;2022-12-07T07:03:37;6.40;91.00
7658;DHT22;8462;53.156;8.220;2022-12-07T07:06:05;6.30;90.90
7658;DHT22;8462;53.156;8.220;2022-12-07T07:08:34;6.30;91.10
7658;DHT22;8462;53.156;8.220;2022-12-07T07:11:02;6.20;91.20
7658;DHT22;8462;53.156;8.220;2022-12-07T07:13:29;6.10;91.20
7658;DHT22;8462;53.156;8.220;2022-12-07T07:15:56;6.10;91.20
7658;DHT22;8462;53.156;8.220;2022-12-07T07:18:24;6.00;91.30
7658;DHT22;8462;53.156;8.220;2022-12-07T07:20:51;5.90;91.40
7658;DHT22;8462;53.156;8.220;2022-12-07T07:23:19;5.90;91.50
7658;DHT22;8462;53.156;8.220;2022-12-07T07:25:47;5.90;91.60
7658;DHT22;8462;53.156;8.220;2022-12-07T07:28:15;5.80;91.70
7658;DHT22;8462;53.156;8.220;2022-12-07T07:30:42;5.80;91.80
7658;DHT22;8462;53.156;8.220;2022-12-07T07:33:09;5.80;91.80
7658;DHT22;8462;53.156;8.220;2022-12-07T07:35:37;5.70;91.80
7658;DHT22;8462;53.156;8.220;2022-12-07T07:38:04;5.80;92.00
7658;DHT22;8462;53.156;8.220;2022-12-07T07:40:31;5.70;92.00
7658;DHT22;8462;53.156;8.220;2022-12-07T07:43:00;5.80;92.20
7658;DHT22;8462;53.156;8.220;2022-12-07T07:45:27;5.80;92.20
7658;DHT22;8462;53.156;8.220;2022-12-07T07:47:54;5.80;92.20
7658;DHT22;8462;53.156;8.220;2022-12-07T07:50:21;5.80;92.30
7658;DHT22;8462;53.156;8.220;2022-12-07T07:52:49;5.80;92.40
7658;DHT22;8462;53.156;8.220;2022-12-07T07:55:16;5.90;92.60
7658;DHT22;8462;53.156;8.220;2022-12-07T07:57:43;6.00;92.70
7658;DHT22;8462;53.156;8.220;2022-12-07T08:00:13;6.10;92.70
7658;DHT22;8462;53.156;8.220;2022-12-07T08:02:41;6.20;92.80
7658;DHT22;8462;53.156;8.220;2022-12-07T08:05:09;6.20;92.60
7658;DHT22;8462;53.156;8.220;2022-12-07T08:07:37;6.30;92.80
7658;DHT22;8462;53.156;8.220;2022-12-07T08:10:05;6.40;92.40
7658;DHT22;8462;53.156;8.220;2022-12-07T08:12:36;6.50;92.70
7658;DHT22;8462;53.156;8.220;2022-12-07T08:15:26;6.50;93.20
7658;DHT22;8462;53.156;8.220;2022-12-07T08:17:53;6.60;92.20
7658;DHT22;8462;53.156;8.220;2022-12-07T08:20:20;6.70;93.00
7658;DHT22;8462;53.156;8.220;2022-12-07T08:22:47;6.80;92.60
7658;DHT22;8462;53.156;8.220;2022-12-07T08:25:14;6.90;92.40
7658;DHT22;8462;53.156;8.220;2022-12-07T08:27:41;7.00;92.70
7658;DHT22;8462;53.156;8.220;2022-12-07T08:30:09;7.20;93.00
7658;DHT22;8462;53.156;8.220;2022-12-07T08:32:37;7.30;92.40
7658;DHT22;8462;53.156;8.220;2022-12-07T08:35:05;7.40;91.90
7658;DHT22;8462;53.156;8.220;2022-12-07T08:37:32;7.30;91.80
7658;DHT22;8462;53.156;8.220;2022-12-07T08:39:59;7.40;91.90
7658;DHT22;8462;53.156;8.220;2022-12-07T08:42:26;7.50;91.80
7658;DHT22;8462;53.156;8.220;2022-12-07T08:44:55;7.50;91.10
7658;DHT22;8462;53.156;8.220;2022-12-07T08:47:24;7.40;91.30
7658;DHT22;8462;53.156;8.220;2022-12-07T08:49:53;7.50;91.10
7658;DHT22;8462;53.156;8.220;2022-12-07T08:52:21;7.40;90.70
7658;DHT22;8462;53.156;8.220;2022-12-07T08:54:48;7.40;90.60
7658;DHT22;8462;53.156;8.220;2022-12-07T08:57:15;7.40;90.60
7658;DHT22;8462;53.156;8.220;2022-12-07T08:59:42;7.30;90.60
7658;DHT22;8462;53.156;8.220;2022-12-07T09:02:10;7.30;90.40
7658;DHT22;8462;53.156;8.220;2022-12-07T09:04:37;7.40;90.60
7658;DHT22;8462;53.156;8.220;2022-12-07T09:07:05;7.40;90.40
7658;DHT22;8462;53.156;8.220;2022-12-07T09:09:32;7.40;90.30
7658;DHT22;8462;53.156;8.220;2022-12-07T09:11:59;7.30;90.10
7658;DHT22;8462;53.156;8.220;2022-12-07T09:14:26;7.20;90.00
7658;DHT22;8462;53.156;8.220;2022-12-07T09:16:54;7.20;90.20
7658;DHT22;8462;53.156;8.220;2022-12-07T09:19:21;7.20;90.20
7658;DHT22;8462;53.156;8.220;2022-12-07T09:21:48;7.30;90.10
7658;DHT22;8462;53.156;8.220;2022-12-07T09:24:16;7.30;90.10
7658;DHT22;8462;53.156;8.220;2022-12-07T09:26:43;7.40;90.30
7658;DHT22;8462;53.156;8.220;2022-12-07T09:29:10;7.60;90.30
7658;DHT22;8462;53.156;8.220;2022-12-07T09:31:37;7.80;89.80
7658;DHT22;8462;53.156;8.220;2022-12-07T09:34:04;7.90;88.90
7658;DHT22;8462;53.156;8.220;2022-12-07T09:36:33;7.90;88.20
7658;DHT22;8462;53.156;8.220;2022-12-07T09:39:00;7.90;88.80
7658;DHT22;8462;53.156;8.220;2022-12-07T09:41:30;8.00;88.60
7658;DHT22;8462;53.156;8.220;2022-12-07T09:44:03;7.90;88.00
7658;DHT22;8462;53.156;8.220;2022-12-07T09:46:35;8.00;88.80
7658;DHT22;8462;53.156;8.220;2022-12-07T09:49:03;8.00;88.70
7658;DHT22;8462;53.156;8.220;2022-12-07T09:51:31;8.00;88.20
7658;DHT22;8462;53.156;8.220;2022-12-07T09:53:59;7.90;88.10
7658;DHT22;8462;53.156;8.220;2022-12-07T09:56:30;7.90;88.10
7658;DHT22;8462;53.156;8.220;2022-12-07T09:59:00;8.00;88.60
7658;DHT22;8462;53.156;8.220;2022-12-07T10:01:29;8.10;88.60
7658;DHT22;8462;53.156;8.220;2022-12-07T10:04:05;8.10;87.60
7658;DHT22;8462;53.156;8.220;2022-12-07T10:06:32;8.10;87.50
7658;DHT22;8462;53.156;8.220;2022-12-07T10:08:59;8.10;88.00
7658;DHT22;8462;53.156;8.220;2022-12-07T10:11:26;8.10;87.80
7658;DHT22;8462;53.156;8.220;2022-12-07T10:13:54;8.10;87.20
7658;DHT22;8462;53.156;8.220;2022-12-07T10:16:40;8.10;88.00
7658;DHT22;8462;53.156;8.220;2022-12-07T10:19:23;8.20;88.00
7658;DHT22;8462;53.156;8.220;2022-12-07T10:22:09;8.30;87.60
7658;DHT22;8462;53.156;8.220;2022-12-07T10:24:37;8.30;87.20
7658;DHT22;8462;53.156;8.220;2022-12-07T10:27:05;8.30;87.00
7658;DHT22;8462;53.156;8.220;2022-12-07T10:29:38;8.40;87.30
7658;DHT22;8462;53.156;8.220;2022-12-07T10:32:28;8.50;86.80
7658;DHT22;8462;53.156;8.220;2022-12-07T10:35:19;8.70;87.20
7658;DHT22;8462;53.156;8.220;2022-12-07T10:37:47;8.80;85.90
7658;DHT22;8462;53.156;8.220;2022-12-07T10:40:26;8.90;85.50
7658;DHT22;8462;53.156;8.220;2022-12-07T10:43:01;9.00;85.70
7658;DHT22;8462;53.156;8.220;2022-12-07T10:45:30;9.00;84.30
7658;DHT22;8462;53.156;8.220;2022-12-07T10:48:02;9.00;84.00
7658;DHT22;8462;53.156;8.220;2022-12-07T10:50:55;9.00;84.50
7658;DHT22;8462;53.156;8.220;2022-12-07T10:53:53;8.90;82.80
7658;DHT22;8462;53.156;8.220;2022-12-07T10:56:50;8.90;83.70
7658;DHT22;8462;53.156;8.220;2022-12-07T10:59:42;8.90;84.00
7658;DHT22;8462;53.156;8.220;2022-12-07T11:02:25;8.80;83.40
7658;DHT22;8462;53.156;8.220;2022-12-07T11:05:09;8.80;83.70
7658;DHT22;8462;53.156;8.220;2022-12-07T11:07:47;8.90;83.60
7658;DHT22;8462;53.156;8.220;2022-12-07T11:10:20;8.80;82.90
7658;DHT22;8462;53.156;8.220;2022-12-07T11:13:04;8.70;83.10
7658;DHT22;8462;53.156;8.220;2022-12-07T11:15:38;8.70;83.50
7658;DHT22;8462;53.156;8.220;2022-12-07T11:18:14;8.60;83.80
7658;DHT22;8462;53.156;8.220;2022-12-07T11:20:53;8.60;83.30
7658;DHT22;8462;53.156;8.220;2022-12-07T11:23:31;8.60;83.90
7658;DHT22;8462;53.156;8.220;2022-12-07T11:26:07;8.50;84.00
7658;DHT22;8462;53.156;8.220;2022-12-07T11:28:46;8.50;84.40
7658;DHT22;8462;53.156;8.220;2022-12-07T11:31:24;8.50;84.60
7658;DHT22;8462;53.156;8.220;2022-12-07T11:34:03;8.60;84.80
7658;DHT22;8462;53.156;8.220;2022-12-07T11:36:38;8.60;84.80
7658;DHT22;8462;53.156;8.220;2022-12-07T11:39:16;8.60;85.00
7658;DHT22;8462;53.156;8.220;2022-12-07T11:41:48;8.70;85.00
7658;DHT22;8462;53.156;8.220;2022-12-07T11:44:26;8.80;84.60
7658;DHT22;8462;53.156;8.220;2022-12-07T11:47:02;8.90;84.60
7658;DHT22;8462;53.156;8.220;2022-12-07T11:49:43;8.90;84.20
7658;DHT22;8462;53.156;8.220;2022-12-07T11:52:18;9.00;84.10
7658;DHT22;8462;53.156;8.220;2022-12-07T11:54:47;8.90;83.60
7658;DHT22;8462;53.156;8.220;2022-12-07T11:57:20;8.90;83.70
7658;DHT22;8462;53.156;8.220;2022-12-07T11:59:52;9.00;83.50
7658;DHT22;8462;53.156;8.220;2022-12-07T12:02:24;9.00;83.10
7658;DHT22;8462;53.156;8.220;2022-12-07T12:04:59;9.00;83.20
7658;DHT22;8462;53.156;8.220;2022-12-07T12:07:29;9.10;83.30
7658;DHT22;8462;53.156;8.220;2022-12-07T12:09:59;9.10;82.80
7658;DHT22;8462;53.156;8.220;2022-12-07T12:12:54;9.10;83.00
7658;DHT22;8462;53.156;8.220;2022-12-07T12:15:36;9.10;82.60
7658;DHT22;8462;53.156;8.220;2022-12-07T12:18:23;9.10;83.00
7658;DHT22;8462;53.156;8.220;2022-12-07T12:21:01;9.10;82.20
7658;DHT22;8462;53.156;8.220;2022-12-07T12:23:36;9.00;82.30
7658;DHT22;8462;53.156;8.220;2022-12-07T12:26:06;9.10;82.60
7658;DHT22;8462;53.156;8.220;2022-12-07T12:28:39;9.00;81.30
7658;DHT22;8462;53.156;8.220;2022-12-07T12:31:12;9.00;81.70
7658;DHT22;8462;53.156;8.220;2022-12-07T12:33:44;9.10;81.60
7658;DHT22;8462;53.156;8.220;2022-12-07T12:36:24;9.00;81.00
7658;DHT22;8462;53.156;8.220;2022-12-07T12:39:08;9.10;81.70
7658;DHT22;8462;53.156;8.220;2022-12-07T12:41:59;9.20;81.00
7658;DHT22;8462;53.156;8.220;2022-12-07T12:50:28;9.20;80.90
7658;DHT22;8462;53.156;8.220;2022-12-07T12:53:05;9.30;80.40
7658;DHT22;8462;53.156;8.220;2022-12-07T12:58:43;9.30;80.60
7658;DHT22;8462;53.156;8.220;2022-12-07T13:01:44;9.30;80.30
7658;DHT22;8462;53.156;8.220;2022-12-07T13:04:34;9.30;79.40
7658;DHT22;8462;53.156;8.220;2022-12-07T13:07:12;9.20;79.90
7658;DHT22;8462;53.156;8.220;2022-12-07T13:09:44;9.10;80.50
7658;DHT22;8462;53.156;8.220;2022-12-07T13:12:14;8.90;79.00
7658;DHT22;8462;53.156;8.220;2022-12-07T13:14:53;8.70;78.50
7658;DHT22;8462;53.156;8.220;2022-12-07T13:17:56;8.40;79.30
7658;DHT22;8462;53.156;8.220;2022-12-07T13:20:46;8.20;81.30
7658;DHT22;8462;53.156;8.220;2022-12-07T13:23:18;8.10;82.80
7658;DHT22;8462;53.156;8.220;2022-12-07T13:26:03;8.10;83.40
7658;DHT22;8462;53.156;8.220;2022-12-07T13:28:35;8.10;83.90
7658;DHT22;8462;53.156;8.220;2022-12-07T13:31:11;8.00;84.30
7658;DHT22;8462;53.156;8.220;2022-12-07T13:33:43;8.10;84.70
7658;DHT22;8462;53.156;8.220;2022-12-07T13:36:17;8.10;85.20
7658;DHT22;8462;53.156;8.220;2022-12-07T13:38:50;8.10;85.60
7658;DHT22;8462;53.156;8.220;2022-12-07T13:41:21;8.20;85.80
7658;DHT22;8462;53.156;8.220;2022-12-07T13:43:51;8.40;86.10
7658;DHT22;8462;53.156;8.220;2022-12-07T13:46:24;8.50;85.90
7658;DHT22;8462;53.156;8.220;2022-12-07T13:48:53;8.60;85.90
7658;DHT22;8462;53.156;8.220;2022-12-07T13:51:34;8.70;85.20
7658;DHT22;8462;53.156;8.220;2022-12-07T13:54:10;8.70;85.50
7658;DHT22;8462;53.156;8.220;2022-12-07T13:56:39;8.70;84.70
7658;DHT22;8462;53.156;8.220;2022-12-07T13:59:13;8.70;84.90
7658;DHT22;8462;53.156;8.220;2022-12-07T14:01:40;8.60;84.70
7658;DHT22;8462;53.156;8.220;2022-12-07T14:04:18;8.40;83.70
7658;DHT22;8462;53.156;8.220;2022-12-07T14:06:49;7.90;81.50
7658;DHT22;8462;53.156;8.220;2022-12-07T14:09:19;7.40;83.40
7658;DHT22;8462;53.156;8.220;2022-12-07T14:11:50;7.00;84.80
7658;DHT22;8462;53.156;8.220;2022-12-07T14:14:21;6.70;86.30
7658;DHT22;8462;53.156;8.220;2022-12-07T14:16:58;6.40;88.00
7658;DHT22;8462;53.156;8.220;2022-12-07T14:19:44;6.20;89.20
7658;DHT22;8462;53.156;8.220;2022-12-07T14:22:22;6.00;89.60
7658;DHT22;8462;53.156;8.220;2022-12-07T14:24:49;5.80;89.70
7658;DHT22;8462;53.156;8.220;2022-12-07T14:27:21;5.70;90.00
7658;DHT22;8462;53.156;8.220;2022-12-07T14:29:51;5.50;90.30
7658;DHT22;8462;53.156;8.220;2022-12-07T14:32:23;5.50;90.80
7658;DHT22;8462;53.156;8.220;2022-12-07T14:34:59;5.40;91.00
7658;DHT22;8462;53.156;8.220;2022-12-07T14:37:28;5.30;91.10
7658;DHT22;8462;53.156;8.220;2022-12-07T14:39:56;5.40;91.30
7658;DHT22;8462;53.156;8.220;2022-12-07T14:42:28;5.40;91.60
7658;DHT22;8462;53.156;8.220;2022-12-07T14:44:57;5.40;91.90
7658;DHT22;8462;53.156;8.220;2022-12-07T14:47:26;5.50;91.90
7658;DHT22;8462;53.156;8.220;2022-12-07T14:49:55;5.50;91.90
7658;DHT22;8462;53.156;8.220;2022-12-07T14:52:26;5.60;92.20
7658;DHT22;8462;53.156;8.220;2022-12-07T14:54:54;5.60;92.10
7658;DHT22;8462;53.156;8.220;2022-12-07T14:57:22;5.70;92.30
7658;DHT22;8462;53.156;8.220;2022-12-07T14:59:51;5.70;92.10
7658;DHT22;8462;53.156;8.220;2022-12-07T15:02:18;5.80;92.20
7658;DHT22;8462;53.156;8.220;2022-12-07T15:04:46;5.80;92.20
7658;DHT22;8462;53.156;8.220;2022-12-07T15:07:17;5.80;92.40
7658;DHT22;8462;53.156;8.220;2022-12-07T15:09:45;5.90;92.30
7658;DHT22;8462;53.156;8.220;2022-12-07T15:12:13;5.90;92.40
7658;DHT22;8462;53.156;8.220;2022-12-07T15:14:41;5.90;92.50
7658;DHT22;8462;53.156;8.220;2022-12-07T15:17:11;5.90;92.40
7658;DHT22;8462;53.156;8.220;2022-12-07T15:19:39;6.00;92.40
7658;DHT22;8462;53.156;8.220;2022-12-07T15:22:12;6.10;92.60
7658;DHT22;8462;53.156;8.220;2022-12-07T15:24:42;6.10;92.80
7658;DHT22;8462;53.156;8.220;2022-12-07T15:27:09;6.10;92.80
7658;DHT22;8462;53.156;8.220;2022-12-07T15:29:36;6.20;93.10
7658;DHT22;8462;53.156;8.220;2022-12-07T15:32:04;6.30;93.00
7658;DHT22;8462;53.156;8.220;2022-12-07T15:34:32;6.30;92.90
7658;DHT22;8462;53.156;8.220;2022-12-07T15:37:00;6.40;93.00
7658;DHT22;8462;53.156;8.220;2022-12-07T15:39:26;6.40;93.00
7658;DHT22;8462;53.156;8.220;2022-12-07T15:41:55;6.50;93.00
7658;DHT22;8462;53.156;8.220;2022-12-07T15:44:22;6.60;92.70
7658;DHT22;8462;53.156;8.220;2022-12-07T15:47:08;6.60;92.70
7658;DHT22;8462;53.156;8.220;2022-12-07T15:49:36;6.60;92.30
7658;DHT22;8462;53.156;8.220;2022-12-07T15:52:03;6.60;92.50
7658;DHT22;8462;53.156;8.220;2022-12-07T15:54:31;6.60;92.30
7658;DHT22;8462;53.156;8.220;2022-12-07T15:56:59;6.60;92.10
7658;DHT22;8462;53.156;8.220;2022-12-07T15:59:27;6.60;92.10
7658;DHT22;8462;53.156;8.220;2022-12-07T16:01:54;6.60;92.30
7658;DHT22;8462;53.156;8.220;2022-12-07T16:04:21;6.60;92.10
7658;DHT22;8462;53.156;8.220;2022-12-07T16:06:50;6.50;91.90
7658;DHT22;8462;53.156;8.220;2022-12-07T16:09:17;6.50;92.40
7658;DHT22;8462;53.156;8.220;2022-12-07T16:11:44;6.60;92.20
7658;DHT22;8462;53.156;8.220;2022-12-07T16:14:11;6.50;92.00
7658;DHT22;8462;53.156;8.220;2022-12-07T16:16:39;6.50;92.20
7658;DHT22;8462;53.156;8.220;2022-12-07T16:19:07;6.50;92.30
7658;DHT22;8462;53.156;8.220;2022-12-07T16:21:34;6.50;92.20
7658;DHT22;8462;53.156;8.220;2022-12-07T16:24:03;6.60;92.50
7658;DHT22;8462;53.156;8.220;2022-12-07T16:26:31;6.60;92.30
7658;DHT22;8462;53.156;8.220;2022-12-07T16:28:58;6.60;92.50
7658;DHT22;8462;53.156;8.220;2022-12-07T16:31:27;6.60;92.30
7658;DHT22;8462;53.156;8.220;2022-12-07T16:33:56;6.60;92.30
7658;DHT22;8462;53.156;8.220;2022-12-07T16:36:24;6.60;92.40
7658;DHT22;8462;53.156;8.220;2022-12-07T16:38:53;6.60;91.60
7658;DHT22;8462;53.156;8.220;2022-12-07T16:41:22;6.40;91.40
7658;DHT22;8462;53.156;8.220;2022-12-07T16:43:49;6.30;91.60
7658;DHT22;8462;53.156;8.220;2022-12-07T16:46:16;6.20;92.00
7658;DHT22;8462;53.156;8.220;2022-12-07T16:48:43;6.20;92.40
7658;DHT22;8462;53.156;8.220;2022-12-07T16:51:12;6.10;92.10